createdAt,value
2023-05-18T00:02:08.705Z,10.27
2023-05-18T00:04:36.515Z,10.63
2023-05-18T00:07:05.014Z,13.35
2023-05-18T00:09:34.573Z,14.25
2023-05-18T00:12:02.706Z,11.10
2023-05-18T00:14:29.596Z,11.27
2023-05-18T00:16:56.354Z,11.27
2023-05-18T00:19:24.364Z,12.93
2023-05-18T00:21:52.663Z,12.27
2023-05-18T00:24:19.814Z,13.82
2023-05-18T00:26:49.248Z,14.13
2023-05-18T00:29:16.626Z,10.35
2023-05-18T00:31:45.449Z,10.40
2023-05-18T00:34:14.097Z,14.48
2023-05-18T00:36:41.194Z,11.30
2023-05-18T00:39:09.393Z,9.23
2023-05-18T00:41:36.509Z,11.68
2023-05-18T00:44:04.988Z,10.82
2023-05-18T00:46:32.603Z,11.05
2023-05-18T00:49:03.104Z,11.13
2023-05-18T00:51:32.068Z,9.90
2023-05-18T00:54:01.053Z,16.35
2023-05-18T00:56:29.119Z,15.90
2023-05-18T00:58:57.281Z,12.07
2023-05-18T01:01:29.274Z,12.73
2023-05-18T01:04:02.366Z,11.57
2023-05-18T01:06:36.062Z,12.20
2023-05-18T01:09:06.925Z,12.40
2023-05-18T01:11:57.128Z,15.10
2023-05-18T01:14:49.859Z,13.30
2023-05-18T01:17:19.712Z,12.07
2023-05-18T01:19:52.322Z,12.20
2023-05-18T01:22:23.191Z,11.25
2023-05-18T01:24:53.415Z,12.90
2023-05-18T01:27:21.861Z,11.10
2023-05-18T01:29:49.008Z,11.50
2023-05-18T01:32:20.586Z,15.30
2023-05-18T01:34:48.303Z,13.00
2023-05-18T01:37:15.079Z,13.20
2023-05-18T01:39:42.321Z,16.17
2023-05-18T01:42:15.228Z,13.48
2023-05-18T01:44:56.821Z,11.63
2023-05-18T01:47:25.364Z,10.85
2023-05-18T01:49:59.912Z,12.48
2023-05-18T01:52:34.178Z,11.02
2023-05-18T01:55:03.609Z,14.15
2023-05-18T01:57:32.772Z,13.63
2023-05-18T02:00:00.233Z,12.25
2023-05-18T02:02:28.416Z,11.00
2023-05-18T02:04:55.572Z,16.08
2023-05-18T02:07:22.310Z,14.65
2023-05-18T02:09:49.305Z,14.07
2023-05-18T02:12:16.043Z,14.00
2023-05-18T02:14:42.829Z,15.05
2023-05-18T02:17:10.241Z,12.98
2023-05-18T02:19:38.145Z,14.68
2023-05-18T02:22:08.361Z,15.23
2023-05-18T02:24:35.208Z,16.05
2023-05-18T02:27:02.130Z,14.73
2023-05-18T02:29:28.890Z,13.93
2023-05-18T02:31:55.732Z,16.98
2023-05-18T02:34:23.101Z,14.60
2023-05-18T02:36:49.897Z,17.45
2023-05-18T02:39:17.229Z,16.98
2023-05-18T02:41:43.950Z,15.48
2023-05-18T02:44:12.427Z,13.63
2023-05-18T02:46:39.369Z,14.80
2023-05-18T02:49:06.224Z,14.98
2023-05-18T02:51:33.061Z,11.85
2023-05-18T02:53:59.922Z,13.48
2023-05-18T02:56:26.661Z,15.05
2023-05-18T02:58:57.903Z,14.65
2023-05-18T03:01:28.287Z,14.25
2023-05-18T03:03:57.775Z,13.45
2023-05-18T03:06:26.590Z,13.57
2023-05-18T03:08:57.054Z,14.95
2023-05-18T03:11:24.633Z,13.30
2023-05-18T03:13:51.900Z,14.75
2023-05-18T03:16:18.866Z,13.18
2023-05-18T03:18:46.210Z,10.90
2023-05-18T03:21:13.727Z,10.80
2023-05-18T03:23:40.867Z,26.25
2023-05-18T03:26:11.557Z,12.35
2023-05-18T03:28:39.189Z,13.48
2023-05-18T03:31:06.168Z,11.75
2023-05-18T03:33:33.212Z,13.48
2023-05-18T03:36:04.832Z,14.88
2023-05-18T03:38:31.678Z,12.07
2023-05-18T03:40:58.517Z,12.02
2023-05-18T03:43:25.972Z,12.77
2023-05-18T03:45:53.621Z,13.25
2023-05-18T03:48:21.076Z,14.38
2023-05-18T03:50:48.786Z,16.13
2023-05-18T03:53:19.233Z,11.55
2023-05-18T03:55:46.586Z,11.43
2023-05-18T03:58:13.467Z,11.10
2023-05-18T04:00:40.690Z,11.88
2023-05-18T04:03:07.572Z,13.13
2023-05-18T04:05:34.427Z,9.85
2023-05-18T04:08:01.282Z,10.73
2023-05-18T04:10:28.066Z,12.90
2023-05-18T04:12:54.808Z,13.52
2023-05-18T04:15:21.677Z,11.10
2023-05-18T04:17:51.415Z,13.15
2023-05-18T04:20:18.604Z,11.48
2023-05-18T04:22:48.212Z,11.23
2023-05-18T04:25:16.490Z,11.00
2023-05-18T04:27:45.559Z,11.07
2023-05-18T04:30:13.370Z,11.88
2023-05-18T04:32:43.109Z,13.43
2023-05-18T04:35:11.603Z,12.52
2023-05-18T04:37:41.427Z,11.35
2023-05-18T04:40:17.229Z,11.65
2023-05-18T04:42:48.470Z,9.90
2023-05-18T04:45:17.762Z,14.10
2023-05-18T04:47:46.838Z,12.20
2023-05-18T04:50:17.672Z,12.50
2023-05-18T04:52:48.799Z,10.20
2023-05-18T04:55:27.570Z,12.75
2023-05-18T04:57:56.980Z,11.18
2023-05-18T05:00:25.305Z,12.55
2023-05-18T05:02:52.429Z,9.85
2023-05-18T05:05:19.319Z,12.52
2023-05-18T05:07:46.385Z,13.05
2023-05-18T05:10:13.185Z,12.63
2023-05-18T05:12:41.192Z,10.85
2023-05-18T05:15:09.558Z,10.38
2023-05-18T05:17:36.798Z,10.55
2023-05-18T05:20:04.174Z,11.45
2023-05-18T05:22:30.928Z,12.23
2023-05-18T05:24:57.739Z,14.10
2023-05-18T05:27:26.240Z,12.68
2023-05-18T05:29:53.328Z,12.43
2023-05-18T05:32:20.139Z,10.45
2023-05-18T05:34:48.088Z,11.15
2023-05-18T05:37:14.834Z,11.82
2023-05-18T05:39:41.781Z,12.52
2023-05-18T05:42:08.812Z,11.13
2023-05-18T05:44:35.982Z,11.57
2023-05-18T05:47:03.645Z,14.20
2023-05-18T05:49:30.586Z,11.25
2023-05-18T05:51:57.328Z,10.80
2023-05-18T05:54:24.150Z,8.05
2023-05-18T05:56:50.998Z,9.45
2023-05-18T05:59:17.776Z,12.30
2023-05-18T06:01:44.578Z,11.73
2023-05-18T06:04:12.631Z,15.23
2023-05-18T06:06:39.656Z,10.57
2023-05-18T06:09:06.429Z,15.82
2023-05-18T06:11:33.323Z,12.00
2023-05-18T06:14:00.267Z,14.70
2023-05-18T06:16:27.142Z,12.10
2023-05-18T06:18:54.048Z,10.57
2023-05-18T06:21:21.927Z,11.90
2023-05-18T06:23:48.730Z,11.18
2023-05-18T06:26:15.440Z,12.13
2023-05-18T06:28:42.174Z,11.32
2023-05-18T06:31:09.010Z,12.63
2023-05-18T06:33:36.362Z,13.57
2023-05-18T06:36:03.338Z,10.52
2023-05-18T06:38:30.438Z,12.45
2023-05-18T06:40:57.234Z,9.65
2023-05-18T06:43:26.898Z,8.70
2023-05-18T06:45:54.716Z,12.27
2023-05-18T06:48:33.301Z,10.25
2023-05-18T06:51:03.068Z,9.98
2023-05-18T06:53:31.786Z,8.52
2023-05-18T06:56:00.574Z,11.52
2023-05-18T06:58:27.573Z,7.85
2023-05-18T07:01:07.058Z,9.38
2023-05-18T07:03:34.896Z,11.00
2023-05-18T07:09:05.757Z,11.00
2023-05-18T07:11:40.951Z,8.38
2023-05-18T07:14:31.155Z,10.00
2023-05-18T07:17:31.428Z,10.38
2023-05-18T07:20:11.879Z,8.38
2023-05-18T07:23:45.011Z,9.15
2023-05-18T07:25:49.333Z,10.05
2023-05-18T07:28:19.568Z,8.57
2023-05-18T07:30:46.668Z,9.20
2023-05-18T07:33:15.602Z,9.63
2023-05-18T07:35:48.051Z,10.68
2023-05-18T07:38:14.826Z,10.02
2023-05-18T07:40:41.557Z,9.43
2023-05-18T07:43:08.324Z,7.47
2023-05-18T07:45:35.233Z,8.18
2023-05-18T07:48:02.175Z,10.52
2023-05-18T07:50:29.954Z,7.75
2023-05-18T07:52:56.918Z,9.40
2023-05-18T07:55:23.774Z,9.20
2023-05-18T07:57:50.952Z,8.38
2023-05-18T08:00:18.267Z,9.13
2023-05-18T08:02:45.973Z,9.55
2023-05-18T08:05:12.900Z,10.32
2023-05-18T08:07:39.712Z,10.40
2023-05-18T08:10:06.993Z,7.20
2023-05-18T08:12:33.791Z,11.23
2023-05-18T08:15:01.968Z,6.55
2023-05-18T08:17:28.725Z,8.73
2023-05-18T08:19:55.507Z,5.78
2023-05-18T08:22:22.285Z,7.90
2023-05-18T08:24:49.038Z,8.45
2023-05-18T08:27:16.054Z,7.65
2023-05-18T08:29:42.901Z,7.70
2023-05-18T08:32:09.641Z,9.38
2023-05-18T08:34:36.745Z,9.98
2023-05-18T08:37:03.816Z,7.75
2023-05-18T08:39:33.342Z,9.30
2023-05-18T08:42:41.568Z,7.75
2023-05-18T08:46:10.008Z,7.57
2023-05-18T08:48:37.293Z,9.45
2023-05-18T08:51:14.340Z,6.60
2023-05-18T08:53:49.934Z,8.05
2023-05-18T08:56:40.516Z,8.13
2023-05-18T08:59:10.873Z,6.50
2023-05-18T09:01:48.586Z,7.53
2023-05-18T09:07:10.727Z,9.80
2023-05-18T09:13:05.449Z,6.75
2023-05-18T09:19:07.789Z,6.25
2023-05-18T09:21:39.160Z,5.80
2023-05-18T09:24:15.724Z,6.90
2023-05-18T09:26:54.648Z,9.38
2023-05-18T09:29:54.701Z,7.95
2023-05-18T09:32:37.738Z,9.20
2023-05-18T09:35:09.680Z,7.13
2023-05-18T09:37:36.639Z,6.03
2023-05-18T09:40:06.638Z,6.53
2023-05-18T09:42:41.609Z,8.60
2023-05-18T09:45:17.691Z,6.60
2023-05-18T09:47:44.516Z,9.88
2023-05-18T09:50:11.557Z,6.45
2023-05-18T09:52:43.319Z,6.72
2023-05-18T09:55:11.671Z,6.72
2023-05-18T09:57:51.213Z,7.20
2023-05-18T10:00:20.726Z,6.18
2023-05-18T10:02:52.483Z,7.97
2023-05-18T10:05:27.713Z,6.05
2023-05-18T10:07:55.499Z,5.15
2023-05-18T10:10:25.624Z,6.43
2023-05-18T10:12:53.970Z,5.70
2023-05-18T10:15:22.672Z,8.95
2023-05-18T10:18:08.894Z,7.13
2023-05-18T10:20:35.810Z,5.40
2023-05-18T10:23:07.127Z,5.18
2023-05-18T10:25:35.634Z,5.53
2023-05-18T10:28:07.491Z,6.43
2023-05-18T10:30:35.295Z,9.52
2023-05-18T10:33:07.022Z,7.43
2023-05-18T10:35:39.032Z,6.90
2023-05-18T10:38:07.264Z,5.40
2023-05-18T10:40:36.105Z,7.45
2023-05-18T10:43:04.272Z,5.03
2023-05-18T10:45:35.225Z,7.05
2023-05-18T10:48:05.057Z,5.93
2023-05-18T10:50:32.265Z,6.47
2023-05-18T10:53:00.794Z,6.68
2023-05-18T10:55:29.642Z,4.90
2023-05-18T10:58:03.586Z,8.30
2023-05-18T11:00:34.371Z,6.28
2023-05-18T11:03:02.034Z,6.38
2023-05-18T11:05:28.919Z,5.32
2023-05-18T11:08:04.964Z,4.88
2023-05-18T11:10:41.020Z,4.85
2023-05-18T11:13:08.315Z,5.43
2023-05-18T11:15:54.441Z,6.32
2023-05-18T11:18:40.647Z,6.30
2023-05-18T11:21:32.591Z,9.45
2023-05-18T11:24:25.247Z,7.40
2023-05-18T11:26:56.805Z,8.13
2023-05-18T11:29:36.253Z,5.30
2023-05-18T11:32:04.904Z,7.30
2023-05-18T11:34:45.343Z,6.18
2023-05-18T11:37:14.211Z,5.60
2023-05-18T11:39:51.622Z,4.53
2023-05-18T11:42:33.192Z,5.68
2023-05-18T11:45:09.623Z,4.18
2023-05-18T11:47:37.958Z,4.38
2023-05-18T11:50:08.551Z,3.72
2023-05-18T11:52:47.184Z,9.10
2023-05-18T11:55:15.425Z,5.97
2023-05-18T11:57:48.895Z,4.75
2023-05-18T12:00:17.088Z,5.20
2023-05-18T12:02:46.441Z,5.43
2023-05-18T12:05:14.598Z,4.22
2023-05-18T12:07:42.640Z,4.50
2023-05-18T12:10:29.883Z,5.10
2023-05-18T12:12:57.735Z,6.15
2023-05-18T12:15:25.094Z,8.65
2023-05-18T12:17:52.487Z,6.20
2023-05-18T12:20:19.858Z,6.97
2023-05-18T12:22:52.972Z,6.47
2023-05-18T12:25:22.018Z,6.38
2023-05-18T12:27:49.644Z,7.68
2023-05-18T12:30:20.214Z,5.50
2023-05-18T12:32:54.530Z,6.88
2023-05-18T12:35:31.507Z,3.70
2023-05-18T12:38:02.604Z,8.77
2023-05-18T12:40:44.133Z,6.13
2023-05-18T12:43:11.169Z,11.27
2023-05-18T12:45:38.102Z,4.28
2023-05-18T12:48:09.814Z,6.38
2023-05-18T12:50:38.857Z,7.30
2023-05-18T12:53:27.600Z,5.05
2023-05-18T12:55:59.610Z,6.15
2023-05-18T12:58:26.363Z,7.88
2023-05-18T13:00:53.112Z,5.15
2023-05-18T13:03:21.826Z,7.00
2023-05-18T13:06:06.034Z,7.30
2023-05-18T13:08:34.079Z,6.85
2023-05-18T13:11:12.881Z,5.90
2023-05-18T13:13:58.483Z,7.40
2023-05-18T13:16:25.969Z,6.27
2023-05-18T13:19:00.698Z,5.13
2023-05-18T13:21:27.715Z,6.03
2023-05-18T13:23:54.523Z,5.78
2023-05-18T13:26:25.613Z,5.85
2023-05-18T13:28:54.920Z,4.88
2023-05-18T13:31:22.771Z,5.28
2023-05-18T13:33:50.340Z,6.80
2023-05-18T13:36:18.098Z,6.75
2023-05-18T13:38:44.833Z,4.93
2023-05-18T13:41:12.503Z,6.88
2023-05-18T13:43:39.421Z,5.78
2023-05-18T13:46:06.276Z,5.95
2023-05-18T13:48:33.226Z,6.07
2023-05-18T13:51:02.159Z,5.88
2023-05-18T13:53:28.965Z,4.25
2023-05-18T13:55:55.827Z,5.28
2023-05-18T13:58:23.839Z,7.00
2023-05-18T14:00:50.678Z,5.38
2023-05-18T14:03:20.206Z,5.68
2023-05-18T14:06:08.886Z,5.78
2023-05-18T14:08:35.629Z,5.47
2023-05-18T14:11:02.357Z,6.20
2023-05-18T14:13:29.084Z,5.68
2023-05-18T14:15:55.901Z,8.00
2023-05-18T14:18:22.674Z,5.10
2023-05-18T14:20:49.514Z,6.60
2023-05-18T14:23:16.279Z,5.00
2023-05-18T14:25:45.343Z,4.80
2023-05-18T14:28:12.182Z,6.90
2023-05-18T14:30:38.972Z,6.13
2023-05-18T14:33:05.735Z,7.32
2023-05-18T14:35:32.564Z,7.97
2023-05-18T14:37:59.385Z,6.55
2023-05-18T14:40:26.132Z,6.50
2023-05-18T14:42:53.968Z,4.65
2023-05-18T14:45:21.185Z,7.43
2023-05-18T14:47:48.126Z,5.05
2023-05-18T14:50:14.999Z,6.30
2023-05-18T14:52:45.835Z,8.30
2023-05-18T14:55:12.642Z,6.70
2023-05-18T14:57:39.393Z,5.03
2023-05-18T15:00:06.923Z,8.70
2023-05-18T15:02:33.788Z,5.95
2023-05-18T15:05:03.978Z,5.18
2023-05-18T15:07:30.843Z,9.63
2023-05-18T15:09:57.735Z,6.13
2023-05-18T15:12:24.562Z,6.47
2023-05-18T15:14:51.432Z,6.00
2023-05-18T15:17:18.312Z,6.25
2023-05-18T15:19:45.259Z,5.40
2023-05-18T15:22:12.249Z,4.63
2023-05-18T15:24:39.135Z,5.90
2023-05-18T15:27:06.549Z,5.97
2023-05-18T15:29:37.168Z,7.07
2023-05-18T15:32:04.417Z,4.78
2023-05-18T15:34:35.523Z,4.55
2023-05-18T15:37:02.735Z,4.85
2023-05-18T15:39:32.758Z,5.97
2023-05-18T15:42:12.400Z,6.85
2023-05-18T15:44:39.260Z,9.50
2023-05-18T15:47:06.320Z,5.47
2023-05-18T15:49:33.113Z,4.75
2023-05-18T15:52:00.245Z,5.72
2023-05-18T15:54:27.268Z,6.47
2023-05-18T15:56:54.052Z,7.07
2023-05-18T15:59:20.963Z,6.15
2023-05-18T16:01:50.103Z,5.68
2023-05-18T16:04:16.971Z,7.18
2023-05-18T16:06:43.859Z,6.22
2023-05-18T16:09:10.751Z,6.03
2023-05-18T16:11:37.550Z,5.80
2023-05-18T16:14:04.912Z,8.93
2023-05-18T16:16:35.342Z,6.30
2023-05-18T16:19:03.225Z,5.68
2023-05-18T16:21:30.082Z,8.68
2023-05-18T16:23:56.837Z,6.78
2023-05-18T16:26:23.567Z,5.78
2023-05-18T16:28:50.532Z,7.03
2023-05-18T16:31:17.374Z,4.25
2023-05-18T16:33:44.244Z,10.13
2023-05-18T16:36:11.430Z,8.50
2023-05-18T16:38:38.437Z,4.18
2023-05-18T16:41:05.629Z,8.48
2023-05-18T16:43:32.921Z,8.07
2023-05-18T16:45:59.740Z,5.90
2023-05-18T16:48:26.572Z,9.55
2023-05-18T16:50:53.591Z,6.82
2023-05-18T16:53:20.328Z,6.78
2023-05-18T16:55:47.107Z,7.85
2023-05-18T16:58:13.870Z,5.15
2023-05-18T17:00:40.852Z,8.65
2023-05-18T17:03:07.681Z,5.20
2023-05-18T17:05:35.384Z,6.40
2023-05-18T17:08:02.300Z,6.30
2023-05-18T17:10:29.215Z,10.00
2023-05-18T17:12:57.617Z,8.02
2023-05-18T17:15:24.370Z,4.72
2023-05-18T17:17:51.241Z,5.53
2023-05-18T17:20:18.119Z,4.78
2023-05-18T17:22:44.877Z,6.22
2023-05-18T17:25:11.616Z,6.28
2023-05-18T17:27:38.368Z,5.72
2023-05-18T17:30:05.936Z,6.07
2023-05-18T17:32:32.815Z,8.48
2023-05-18T17:34:59.647Z,7.32
2023-05-18T17:37:26.811Z,6.65
2023-05-18T17:39:53.844Z,6.68
2023-05-18T17:42:25.884Z,6.45
2023-05-18T17:44:52.613Z,4.85
2023-05-18T17:47:19.533Z,8.07
2023-05-18T17:49:46.452Z,6.57
2023-05-18T17:52:13.196Z,5.93
2023-05-18T17:54:39.912Z,4.95
2023-05-18T17:57:06.663Z,5.47
2023-05-18T17:59:35.018Z,6.78
2023-05-18T18:02:03.481Z,5.65
2023-05-18T18:04:30.354Z,6.22
2023-05-18T18:06:58.506Z,10.10
2023-05-18T18:09:25.333Z,4.85
2023-05-18T18:11:52.077Z,6.10
2023-05-18T18:14:18.834Z,5.43
2023-05-18T18:16:45.641Z,5.38
2023-05-18T18:19:13.391Z,4.85
2023-05-18T18:21:40.489Z,4.68
2023-05-18T18:24:14.370Z,8.05
2023-05-18T18:26:41.263Z,6.75
2023-05-18T18:29:08.013Z,6.35
2023-05-18T18:31:34.866Z,4.53
2023-05-18T18:34:01.666Z,6.05
2023-05-18T18:36:28.458Z,6.22
2023-05-18T18:38:55.349Z,4.30
2023-05-18T18:41:22.190Z,6.72
2023-05-18T18:43:49.003Z,10.68
2023-05-18T18:46:15.762Z,4.63
2023-05-18T18:48:42.701Z,6.30
2023-05-18T18:51:09.441Z,5.78
2023-05-18T18:53:36.186Z,7.13
2023-05-18T18:56:03.110Z,6.65
2023-05-18T18:58:29.869Z,4.22
2023-05-18T19:00:56.698Z,4.20
2023-05-18T19:03:23.497Z,13.07
2023-05-18T19:05:51.109Z,7.07
2023-05-18T19:08:19.987Z,6.32
2023-05-18T19:10:46.739Z,6.65
2023-05-18T19:13:13.515Z,5.63
2023-05-18T19:15:40.463Z,5.47
2023-05-18T19:18:08.007Z,5.10
2023-05-18T19:20:34.954Z,4.25
2023-05-18T19:23:01.773Z,6.45
2023-05-18T19:25:29.884Z,8.63
2023-05-18T19:27:57.052Z,7.97
2023-05-18T19:30:23.933Z,4.20
2023-05-18T19:32:53.920Z,5.43
2023-05-18T19:35:22.173Z,5.82
2023-05-18T19:37:49.138Z,5.45
2023-05-18T19:40:16.868Z,61.95
2023-05-18T19:42:43.651Z,29.50
2023-05-18T19:45:10.650Z,4.40
2023-05-18T19:47:39.538Z,6.05
2023-05-18T19:50:07.103Z,5.22
2023-05-18T19:52:33.963Z,7.57
2023-05-18T19:55:01.885Z,6.00
2023-05-18T19:57:28.783Z,5.78
2023-05-18T19:59:55.556Z,4.97
2023-05-18T20:02:22.300Z,6.55
2023-05-18T20:04:50.056Z,7.60
2023-05-18T20:07:18.044Z,7.90
2023-05-18T20:09:44.911Z,7.78
2023-05-18T20:12:11.680Z,7.28
2023-05-18T20:14:39.169Z,5.82
2023-05-18T20:17:06.554Z,7.95
2023-05-18T20:19:33.346Z,6.32
2023-05-18T20:22:00.180Z,4.97
2023-05-18T20:24:26.956Z,8.70
2023-05-18T20:26:53.775Z,6.45
2023-05-18T20:29:20.613Z,5.60
2023-05-18T20:31:47.495Z,6.97
2023-05-18T20:34:14.359Z,7.68
2023-05-18T20:36:41.144Z,6.03
2023-05-18T20:39:09.033Z,5.10
2023-05-18T20:41:40.064Z,6.55
2023-05-18T20:44:07.433Z,10.43
2023-05-18T20:46:34.310Z,5.50
2023-05-18T20:49:01.129Z,6.65
2023-05-18T20:51:28.155Z,6.60
2023-05-18T20:53:55.080Z,6.20
2023-05-18T20:56:24.285Z,5.28
2023-05-18T20:58:51.171Z,5.38
2023-05-18T21:01:18.672Z,4.35
2023-05-18T21:03:45.912Z,6.93
2023-05-18T21:06:14.288Z,5.20
2023-05-18T21:08:41.456Z,5.93
2023-05-18T21:11:08.296Z,4.68
2023-05-18T21:13:36.842Z,4.57
2023-05-18T21:16:06.621Z,7.25
2023-05-18T21:18:37.394Z,4.80
2023-05-18T21:21:04.376Z,6.88
2023-05-18T21:23:31.387Z,6.15
2023-05-18T21:25:58.526Z,5.85
2023-05-18T21:28:25.567Z,6.20
2023-05-18T21:30:53.960Z,6.05
2023-05-18T21:33:21.837Z,4.78
2023-05-18T21:35:48.885Z,4.00
2023-05-18T21:38:16.871Z,4.07
2023-05-18T21:40:44.086Z,5.80
2023-05-18T21:43:11.057Z,5.35
2023-05-18T21:45:38.350Z,4.88
2023-05-18T21:48:05.618Z,4.40
2023-05-18T21:50:34.885Z,4.30
2023-05-18T21:53:05.597Z,5.03
2023-05-18T21:55:32.545Z,4.63
2023-05-18T21:57:59.822Z,8.70
2023-05-18T22:00:39.630Z,4.60
2023-05-18T22:03:06.468Z,4.85
2023-05-18T22:05:33.240Z,3.83
2023-05-18T22:08:00.065Z,4.60
2023-05-18T22:10:26.841Z,5.38
2023-05-18T22:12:54.139Z,4.15
2023-05-18T22:15:22.537Z,5.70
2023-05-18T22:17:49.526Z,4.50
2023-05-18T22:20:17.220Z,4.90
2023-05-18T22:22:44.343Z,3.28
2023-05-18T22:25:12.717Z,3.75
2023-05-18T22:27:39.732Z,4.78
2023-05-18T22:30:08.301Z,3.45
2023-05-18T22:32:35.286Z,3.95
2023-05-18T22:35:03.103Z,3.72
2023-05-18T22:37:30.050Z,5.65
2023-05-18T22:39:56.871Z,3.55
2023-05-18T22:42:23.707Z,4.85
2023-05-18T22:44:51.327Z,4.05
2023-05-18T22:47:21.339Z,4.68
2023-05-18T22:49:49.324Z,3.63
2023-05-18T22:52:18.465Z,4.13
2023-05-18T22:54:45.763Z,3.00
2023-05-18T22:57:12.781Z,3.53
2023-05-18T22:59:39.571Z,5.03
2023-05-18T23:02:06.751Z,3.88
2023-05-18T23:04:35.136Z,3.65
2023-05-18T23:07:04.274Z,3.53
2023-05-18T23:09:31.358Z,3.75
2023-05-18T23:11:59.662Z,4.72
2023-05-18T23:14:32.345Z,5.32
2023-05-18T23:17:02.723Z,4.78
2023-05-18T23:19:29.565Z,3.03
2023-05-18T23:21:56.624Z,4.78
2023-05-18T23:24:23.423Z,3.80
2023-05-18T23:26:50.185Z,6.53
2023-05-18T23:29:17.237Z,4.88
2023-05-18T23:31:44.113Z,6.15
2023-05-18T23:34:11.142Z,4.72
2023-05-18T23:36:39.691Z,3.72
2023-05-18T23:39:07.109Z,3.70
2023-05-18T23:41:35.788Z,2.30
2023-05-18T23:44:03.041Z,4.28
2023-05-18T23:46:30.894Z,2.85
2023-05-18T23:48:59.666Z,2.90
2023-05-18T23:51:29.861Z,2.78
2023-05-18T23:53:57.418Z,4.68
2023-05-18T23:56:24.936Z,5.45
2023-05-18T23:58:51.973Z,3.88
